Terminal Aerodrome Forecast
Issued by NWS

Home | Current Version | Previous Version | Text Only | Print | Product List | Glossary On
Versions: 1 2 3 4 5 6 7 8 9 10 11 12 13
000
FTUS43 KTOP 211731
TAFFOE
TAF
KFOE 211731Z 2118/2218 20019G28KT P6SM BKN030
     FM212000 20017G25KT P6SM VCTS BKN030CB
      TEMPO 2121/2123 1SM TSRA OVC015CB
     FM212300 29012KT 5SM SHRA OVC035
      TEMPO 2123/2201 3SM TSRA OVC015CB
     FM220200 33008KT P6SM VCSH OVC060
     FM220500 33007KT P6SM BKN150=

USA.gov is the U.S. government's official web portal to all federal, state and local government web resources and services.